Rebecq-Rognon, Belgium
Current Conditions -  °F | °C
As of 10:20 AM on Thursday 18 Dec 2014 (Local Time) from EBCI Reporting Station
Light Rain Light Rain  
Wind Chill: 52°   Ceiling: 400
Heat Index: 52°   Visibility: 2mi
Dew Point: 50°   Wind: 16mph
Humidity: 94%   Direction: 240°WSW
Pressure: 29.91"   Gusts: NA
Location:  50.65°N, 4.11°E
Report Text: EBCI 180920Z 24014KT 3200 -DZRA BKN004 11/10 Q1013 NOSIG
Loading
Personal Weather Stations






























Interactive Weather Map New forecast layout! Learn more

10-Day Weather Forecast

Advertisements
Track Severe Weather on mobile